sensor_id;sensor_type;location;lat;lon;timestamp;pressure;altitude;pressure_sealevel;temperature
67599;BMP280;62026;39.230;9.122;2023-03-29T00:01:26;102252.69;;;13.89
67599;BMP280;62026;39.230;9.122;2023-03-29T00:03:56;102257.16;;;13.88
67599;BMP280;62026;39.230;9.122;2023-03-29T00:06:23;102254.72;;;13.87
67599;BMP280;62026;39.230;9.122;2023-03-29T00:08:49;102257.59;;;13.92
67599;BMP280;62026;39.230;9.122;2023-03-29T00:11:21;102254.94;;;13.92
67599;BMP280;62026;39.230;9.122;2023-03-29T00:13:49;102253.13;;;13.92
67599;BMP280;62026;39.230;9.122;2023-03-29T00:16:15;102255.63;;;13.94
67599;BMP280;62026;39.230;9.122;2023-03-29T00:18:43;102259.00;;;13.88
67599;BMP280;62026;39.230;9.122;2023-03-29T00:21:09;102251.03;;;13.88
67599;BMP280;62026;39.230;9.122;2023-03-29T00:23:35;102251.03;;;13.88
67599;BMP280;62026;39.230;9.122;2023-03-29T00:26:02;102241.88;;;13.90
67599;BMP280;62026;39.230;9.122;2023-03-29T00:28:28;102245.13;;;13.86
67599;BMP280;62026;39.230;9.122;2023-03-29T00:31:05;102244.13;;;13.87
67599;BMP280;62026;39.230;9.122;2023-03-29T00:33:32;102243.47;;;13.85
67599;BMP280;62026;39.230;9.122;2023-03-29T00:35:58;102251.41;;;13.85
67599;BMP280;62026;39.230;9.122;2023-03-29T00:38:24;102239.81;;;13.86
67599;BMP280;62026;39.230;9.122;2023-03-29T00:40:50;102238.16;;;13.85
67599;BMP280;62026;39.230;9.122;2023-03-29T00:43:16;102243.22;;;13.80
67599;BMP280;62026;39.230;9.122;2023-03-29T00:45:42;102243.44;;;13.78
67599;BMP280;62026;39.230;9.122;2023-03-29T00:48:14;102232.16;;;13.76
67599;BMP280;62026;39.230;9.122;2023-03-29T00:50:49;102230.97;;;13.79
67599;BMP280;62026;39.230;9.122;2023-03-29T00:53:22;102231.59;;;13.81
67599;BMP280;62026;39.230;9.122;2023-03-29T00:58:31;102235.03;;;13.74
67599;BMP280;62026;39.230;9.122;2023-03-29T01:01:06;102234.19;;;13.74
67599;BMP280;62026;39.230;9.122;2023-03-29T01:03:40;102235.41;;;13.71
67599;BMP280;62026;39.230;9.122;2023-03-29T01:06:15;102232.09;;;13.69
67599;BMP280;62026;39.230;9.122;2023-03-29T01:08:53;102236.16;;;13.65
67599;BMP280;62026;39.230;9.122;2023-03-29T01:11:27;102230.84;;;13.65
67599;BMP280;62026;39.230;9.122;2023-03-29T01:14:21;102228.56;;;13.62
67599;BMP280;62026;39.230;9.122;2023-03-29T01:16:48;102223.09;;;13.64
67599;BMP280;62026;39.230;9.122;2023-03-29T01:19:20;102224.72;;;13.65
67599;BMP280;62026;39.230;9.122;2023-03-29T01:30:30;102214.03;;;13.58
67599;BMP280;62026;39.230;9.122;2023-03-29T01:33:25;102226.13;;;13.61
67599;BMP280;62026;39.230;9.122;2023-03-29T01:36:24;102217.72;;;13.57
67599;BMP280;62026;39.230;9.122;2023-03-29T01:38:56;102215.69;;;13.59
67599;BMP280;62026;39.230;9.122;2023-03-29T01:42:05;102215.06;;;13.57
67599;BMP280;62026;39.230;9.122;2023-03-29T01:50:45;102214.63;;;13.54
67599;BMP280;62026;39.230;9.122;2023-03-29T01:53:37;102222.13;;;13.50
67599;BMP280;62026;39.230;9.122;2023-03-29T01:56:13;102224.53;;;13.45
67599;BMP280;62026;39.230;9.122;2023-03-29T01:58:52;102216.16;;;13.42
67599;BMP280;62026;39.230;9.122;2023-03-29T02:01:26;102217.97;;;13.41
67599;BMP280;62026;39.230;9.122;2023-03-29T02:03:58;102219.22;;;13.45
67599;BMP280;62026;39.230;9.122;2023-03-29T02:06:28;102215.50;;;13.39
67599;BMP280;62026;39.230;9.122;2023-03-29T02:08:55;102209.38;;;13.39
67599;BMP280;62026;39.230;9.122;2023-03-29T02:11:24;102208.38;;;13.40
67599;BMP280;62026;39.230;9.122;2023-03-29T02:13:53;102208.53;;;13.38
67599;BMP280;62026;39.230;9.122;2023-03-29T02:16:19;102206.47;;;13.34
67599;BMP280;62026;39.230;9.122;2023-03-29T02:18:49;102201.53;;;13.31
67599;BMP280;62026;39.230;9.122;2023-03-29T02:24:35;102201.94;;;13.28
67599;BMP280;62026;39.230;9.122;2023-03-29T02:27:03;102207.22;;;13.28
67599;BMP280;62026;39.230;9.122;2023-03-29T02:29:29;102206.34;;;13.21
67599;BMP280;62026;39.230;9.122;2023-03-29T02:34:57;102210.91;;;13.27
67599;BMP280;62026;39.230;9.122;2023-03-29T02:37:26;102215.56;;;13.25
67599;BMP280;62026;39.230;9.122;2023-03-29T02:39:57;102206.53;;;13.19
67599;BMP280;62026;39.230;9.122;2023-03-29T02:42:25;102204.53;;;13.06
67599;BMP280;62026;39.230;9.122;2023-03-29T02:44:57;102219.63;;;13.06
67599;BMP280;62026;39.230;9.122;2023-03-29T02:47:34;102215.56;;;13.03
67599;BMP280;62026;39.230;9.122;2023-03-29T02:50:03;102212.59;;;12.98
67599;BMP280;62026;39.230;9.122;2023-03-29T02:52:42;102209.97;;;12.98
67599;BMP280;62026;39.230;9.122;2023-03-29T02:55:15;102210.59;;;13.00
67599;BMP280;62026;39.230;9.122;2023-03-29T02:57:41;102214.91;;;13.01
67599;BMP280;62026;39.230;9.122;2023-03-29T03:00:10;102196.38;;;13.01
67599;BMP280;62026;39.230;9.122;2023-03-29T03:02:37;102208.31;;;12.97
67599;BMP280;62026;39.230;9.122;2023-03-29T03:05:05;102210.59;;;13.00
67599;BMP280;62026;39.230;9.122;2023-03-29T03:07:31;102216.34;;;13.04
67599;BMP280;62026;39.230;9.122;2023-03-29T03:09:58;102206.69;;;12.96
67599;BMP280;62026;39.230;9.122;2023-03-29T03:12:24;102210.97;;;12.97
67599;BMP280;62026;39.230;9.122;2023-03-29T03:14:50;102212.91;;;13.03
67599;BMP280;62026;39.230;9.122;2023-03-29T03:17:16;102203.00;;;12.97
67599;BMP280;62026;39.230;9.122;2023-03-29T03:19:45;102204.66;;;12.98
67599;BMP280;62026;39.230;9.122;2023-03-29T03:22:11;102213.19;;;12.94
67599;BMP280;62026;39.230;9.122;2023-03-29T03:24:37;102208.72;;;12.94
67599;BMP280;62026;39.230;9.122;2023-03-29T03:27:04;102206.16;;;12.86
67599;BMP280;62026;39.230;9.122;2023-03-29T03:29:30;102200.59;;;12.81
67599;BMP280;62026;39.230;9.122;2023-03-29T03:32:23;102215.75;;;12.87
67599;BMP280;62026;39.230;9.122;2023-03-29T03:35:27;102219.31;;;12.80
67599;BMP280;62026;39.230;9.122;2023-03-29T03:37:53;102211.53;;;12.78
67599;BMP280;62026;39.230;9.122;2023-03-29T03:40:19;102222.13;;;12.78
67599;BMP280;62026;39.230;9.122;2023-03-29T03:42:47;102217.50;;;12.80
67599;BMP280;62026;39.230;9.122;2023-03-29T03:45:13;102221.31;;;12.78
67599;BMP280;62026;39.230;9.122;2023-03-29T03:47:59;102223.25;;;12.69
67599;BMP280;62026;39.230;9.122;2023-03-29T03:50:57;102216.50;;;12.66
67599;BMP280;62026;39.230;9.122;2023-03-29T03:53:28;102218.69;;;12.63
67599;BMP280;62026;39.230;9.122;2023-03-29T03:56:23;102218.69;;;12.63
67599;BMP280;62026;39.230;9.122;2023-03-29T03:59:10;102213.50;;;12.55
67599;BMP280;62026;39.230;9.122;2023-03-29T04:01:52;102212.84;;;12.53
67599;BMP280;62026;39.230;9.122;2023-03-29T04:04:21;102202.44;;;12.51
67599;BMP280;62026;39.230;9.122;2023-03-29T04:07:11;102206.00;;;12.58
67599;BMP280;62026;39.230;9.122;2023-03-29T04:09:56;102207.91;;;12.50
67599;BMP280;62026;39.230;9.122;2023-03-29T04:12:34;102204.16;;;12.44
67599;BMP280;62026;39.230;9.122;2023-03-29T04:15:01;102203.75;;;12.40
67599;BMP280;62026;39.230;9.122;2023-03-29T04:17:28;102196.22;;;12.29
67599;BMP280;62026;39.230;9.122;2023-03-29T04:19:54;102202.25;;;12.23
67599;BMP280;62026;39.230;9.122;2023-03-29T04:22:22;102197.13;;;12.07
67599;BMP280;62026;39.230;9.122;2023-03-29T04:24:50;102200.31;;;12.17
67599;BMP280;62026;39.230;9.122;2023-03-29T04:27:35;102191.03;;;12.21
67599;BMP280;62026;39.230;9.122;2023-03-29T04:30:08;102201.81;;;12.20
67599;BMP280;62026;39.230;9.122;2023-03-29T04:32:54;102195.69;;;12.19
67599;BMP280;62026;39.230;9.122;2023-03-29T04:35:20;102199.06;;;12.13
67599;BMP280;62026;39.230;9.122;2023-03-29T04:37:46;102200.59;;;12.22
67599;BMP280;62026;39.230;9.122;2023-03-29T04:40:15;102205.88;;;12.22
67599;BMP280;62026;39.230;9.122;2023-03-29T04:42:54;102200.59;;;12.22
67599;BMP280;62026;39.230;9.122;2023-03-29T04:45:21;102202.00;;;12.18
67599;BMP280;62026;39.230;9.122;2023-03-29T04:48:16;102201.31;;;12.16
67599;BMP280;62026;39.230;9.122;2023-03-29T04:50:47;102209.00;;;12.11
67599;BMP280;62026;39.230;9.122;2023-03-29T04:53:14;102203.72;;;12.11
67599;BMP280;62026;39.230;9.122;2023-03-29T04:55:42;102193.44;;;12.08
67599;BMP280;62026;39.230;9.122;2023-03-29T04:58:12;102199.06;;;12.13
67599;BMP280;62026;39.230;9.122;2023-03-29T05:00:40;102197.13;;;12.07
67599;BMP280;62026;39.230;9.122;2023-03-29T05:03:10;102193.91;;;11.97
67599;BMP280;62026;39.230;9.122;2023-03-29T05:05:46;102188.06;;;12.01
67599;BMP280;62026;39.230;9.122;2023-03-29T05:08:12;102202.13;;;12.02
67599;BMP280;62026;39.230;9.122;2023-03-29T05:10:58;102203.13;;;12.01
67599;BMP280;62026;39.230;9.122;2023-03-29T05:13:26;102206.31;;;11.96
67599;BMP280;62026;39.230;9.122;2023-03-29T05:15:52;102213.69;;;12.01
67599;BMP280;62026;39.230;9.122;2023-03-29T05:18:18;102210.91;;;12.02
67599;BMP280;62026;39.230;9.122;2023-03-29T05:20:45;102209.06;;;12.03
67599;BMP280;62026;39.230;9.122;2023-03-29T05:23:15;102212.09;;;12.00
67599;BMP280;62026;39.230;9.122;2023-03-29T05:26:00;102206.25;;;12.04
67599;BMP280;62026;39.230;9.122;2023-03-29T05:28:26;102214.09;;;11.98
67599;BMP280;62026;39.230;9.122;2023-03-29T05:31:03;102221.03;;;11.99
67599;BMP280;62026;39.230;9.122;2023-03-29T05:33:32;102230.59;;;12.00
67599;BMP280;62026;39.230;9.122;2023-03-29T05:36:03;102224.28;;;12.01
67599;BMP280;62026;39.230;9.122;2023-03-29T05:38:29;102217.25;;;11.93
67599;BMP280;62026;39.230;9.122;2023-03-29T05:40:58;102226.56;;;11.89
67599;BMP280;62026;39.230;9.122;2023-03-29T05:43:43;102231.03;;;11.89
67599;BMP280;62026;39.230;9.122;2023-03-29T05:46:09;102233.50;;;11.90
67599;BMP280;62026;39.230;9.122;2023-03-29T05:48:41;102235.63;;;11.95
67599;BMP280;62026;39.230;9.122;2023-03-29T05:51:07;102232.78;;;11.96
67599;BMP280;62026;39.230;9.122;2023-03-29T05:53:34;102238.66;;;12.06
67599;BMP280;62026;39.230;9.122;2023-03-29T05:56:01;102232.47;;;12.14
67599;BMP280;62026;39.230;9.122;2023-03-29T05:58:30;102229.22;;;12.27
67599;BMP280;62026;39.230;9.122;2023-03-29T06:00:56;102234.31;;;12.28
67599;BMP280;62026;39.230;9.122;2023-03-29T06:03:42;102234.84;;;12.38
67599;BMP280;62026;39.230;9.122;2023-03-29T06:06:09;102237.59;;;12.45
67599;BMP280;62026;39.230;9.122;2023-03-29T06:08:35;102244.38;;;12.62
67599;BMP280;62026;39.230;9.122;2023-03-29T06:11:12;102243.34;;;12.78
67599;BMP280;62026;39.230;9.122;2023-03-29T06:13:56;102242.25;;;12.87
67599;BMP280;62026;39.230;9.122;2023-03-29T06:16:23;102245.81;;;12.94
67599;BMP280;62026;39.230;9.122;2023-03-29T06:18:50;102251.03;;;13.02
67599;BMP280;62026;39.230;9.122;2023-03-29T06:21:17;102253.81;;;13.16
67599;BMP280;62026;39.230;9.122;2023-03-29T06:23:43;102255.78;;;13.28
67599;BMP280;62026;39.230;9.122;2023-03-29T06:26:09;102267.38;;;13.42
67599;BMP280;62026;39.230;9.122;2023-03-29T06:28:36;102254.25;;;13.55
67599;BMP280;62026;39.230;9.122;2023-03-29T06:31:03;102263.59;;;13.72
67599;BMP280;62026;39.230;9.122;2023-03-29T06:33:33;102263.03;;;13.84
67599;BMP280;62026;39.230;9.122;2023-03-29T06:36:27;102267.59;;;13.90
67599;BMP280;62026;39.230;9.122;2023-03-29T06:38:54;102269.50;;;13.96
67599;BMP280;62026;39.230;9.122;2023-03-29T06:41:38;102264.94;;;14.11
67599;BMP280;62026;39.230;9.122;2023-03-29T06:44:06;102265.63;;;14.26
67599;BMP280;62026;39.230;9.122;2023-03-29T06:46:53;102271.03;;;14.39
67599;BMP280;62026;39.230;9.122;2023-03-29T06:49:19;102270.72;;;14.56
67599;BMP280;62026;39.230;9.122;2023-03-29T06:51:59;102281.03;;;14.72
67599;BMP280;62026;39.230;9.122;2023-03-29T06:54:25;102282.50;;;14.81
67599;BMP280;62026;39.230;9.122;2023-03-29T06:56:59;102281.97;;;15.05
67599;BMP280;62026;39.230;9.122;2023-03-29T06:59:27;102287.41;;;15.38
67599;BMP280;62026;39.230;9.122;2023-03-29T07:02:14;102289.06;;;15.46
67599;BMP280;62026;39.230;9.122;2023-03-29T07:04:52;102269.38;;;15.60
67599;BMP280;62026;39.230;9.122;2023-03-29T07:07:32;102274.28;;;15.76
67599;BMP280;62026;39.230;9.122;2023-03-29T07:10:45;102269.78;;;15.97
67599;BMP280;62026;39.230;9.122;2023-03-29T07:13:24;102276.75;;;16.11
67599;BMP280;62026;39.230;9.122;2023-03-29T07:15:52;102281.22;;;16.30
67599;BMP280;62026;39.230;9.122;2023-03-29T07:18:23;102284.50;;;16.32
67599;BMP280;62026;39.230;9.122;2023-03-29T07:20:49;102284.88;;;16.42
67599;BMP280;62026;39.230;9.122;2023-03-29T07:23:16;102285.88;;;16.55
67599;BMP280;62026;39.230;9.122;2023-03-29T07:25:43;102281.31;;;16.68
67599;BMP280;62026;39.230;9.122;2023-03-29T07:28:10;102280.84;;;16.78
67599;BMP280;62026;39.230;9.122;2023-03-29T07:30:36;102284.47;;;16.90
67599;BMP280;62026;39.230;9.122;2023-03-29T07:33:17;102284.19;;;17.05
67599;BMP280;62026;39.230;9.122;2023-03-29T07:36:05;102273.31;;;17.06
67599;BMP280;62026;39.230;9.122;2023-03-29T07:38:33;102269.94;;;17.17
67599;BMP280;62026;39.230;9.122;2023-03-29T07:41:08;102262.13;;;16.91
67599;BMP280;62026;39.230;9.122;2023-03-29T07:43:37;102278.44;;;17.08
67599;BMP280;62026;39.230;9.122;2023-03-29T07:46:05;102283.69;;;17.21
67599;BMP280;62026;39.230;9.122;2023-03-29T07:48:33;102281.94;;;16.64
67599;BMP280;62026;39.230;9.122;2023-03-29T07:51:05;102282.72;;;16.71
67599;BMP280;62026;39.230;9.122;2023-03-29T07:53:40;102282.94;;;17.07
67599;BMP280;62026;39.230;9.122;2023-03-29T07:56:21;102276.75;;;16.75
67599;BMP280;62026;39.230;9.122;2023-03-29T07:59:00;102277.06;;;16.54
67599;BMP280;62026;39.230;9.122;2023-03-29T08:01:27;102278.16;;;16.84
67599;BMP280;62026;39.230;9.122;2023-03-29T08:04:12;102269.66;;;17.01
67599;BMP280;62026;39.230;9.122;2023-03-29T08:06:56;102270.91;;;17.30
67599;BMP280;62026;39.230;9.122;2023-03-29T08:09:33;102264.66;;;17.11
67599;BMP280;62026;39.230;9.122;2023-03-29T08:12:00;102272.94;;;16.52
67599;BMP280;62026;39.230;9.122;2023-03-29T08:14:32;102271.47;;;16.69
67599;BMP280;62026;39.230;9.122;2023-03-29T08:17:11;102272.22;;;17.14
67599;BMP280;62026;39.230;9.122;2023-03-29T08:19:43;102274.84;;;16.89
67599;BMP280;62026;39.230;9.122;2023-03-29T08:22:09;102278.41;;;17.14
67599;BMP280;62026;39.230;9.122;2023-03-29T08:24:55;102280.78;;;17.54
67599;BMP280;62026;39.230;9.122;2023-03-29T08:27:25;102289.41;;;17.56
67599;BMP280;62026;39.230;9.122;2023-03-29T08:29:51;102284.78;;;17.45
67599;BMP280;62026;39.230;9.122;2023-03-29T08:32:18;102290.19;;;17.32
67599;BMP280;62026;39.230;9.122;2023-03-29T08:34:43;102296.16;;;18.02
67599;BMP280;62026;39.230;9.122;2023-03-29T08:37:31;102304.50;;;17.94
67599;BMP280;62026;39.230;9.122;2023-03-29T08:39:57;102310.00;;;18.17
67599;BMP280;62026;39.230;9.122;2023-03-29T08:46:00;102303.94;;;18.76
67599;BMP280;62026;39.230;9.122;2023-03-29T08:48:55;102309.13;;;18.23
67599;BMP280;62026;39.230;9.122;2023-03-29T08:51:55;102308.72;;;18.01
67599;BMP280;62026;39.230;9.122;2023-03-29T08:54:27;102311.66;;;18.18
67599;BMP280;62026;39.230;9.122;2023-03-29T08:57:36;102312.53;;;18.48
67599;BMP280;62026;39.230;9.122;2023-03-29T09:00:25;102307.78;;;18.69
67599;BMP280;62026;39.230;9.122;2023-03-29T09:02:54;102311.03;;;18.52
67599;BMP280;62026;39.230;9.122;2023-03-29T09:05:28;102303.28;;;19.22
67599;BMP280;62026;39.230;9.122;2023-03-29T09:08:16;102318.41;;;19.05
67599;BMP280;62026;39.230;9.122;2023-03-29T09:19:47;102309.38;;;19.29
67599;BMP280;62026;39.230;9.122;2023-03-29T09:25:25;102309.31;;;19.83
67599;BMP280;62026;39.230;9.122;2023-03-29T09:28:13;102299.88;;;20.32
67599;BMP280;62026;39.230;9.122;2023-03-29T09:39:17;102310.16;;;20.35
67599;BMP280;62026;39.230;9.122;2023-03-29T09:42:03;102306.25;;;20.99
67599;BMP280;62026;39.230;9.122;2023-03-29T09:44:36;102304.88;;;20.40
67599;BMP280;62026;39.230;9.122;2023-03-29T09:47:31;102304.25;;;20.09
67599;BMP280;62026;39.230;9.122;2023-03-29T09:50:35;102306.84;;;19.81
67599;BMP280;62026;39.230;9.122;2023-03-29T09:53:03;102303.19;;;20.10
67599;BMP280;62026;39.230;9.122;2023-03-29T09:55:33;102299.28;;;20.41
67599;BMP280;62026;39.230;9.122;2023-03-29T09:58:37;102292.03;;;20.42
67599;BMP280;62026;39.230;9.122;2023-03-29T10:01:07;102300.75;;;20.21
67599;BMP280;62026;39.230;9.122;2023-03-29T10:03:37;102296.75;;;20.35
67599;BMP280;62026;39.230;9.122;2023-03-29T10:06:11;102293.09;;;20.69
67599;BMP280;62026;39.230;9.122;2023-03-29T10:11:26;102289.06;;;20.83
67599;BMP280;62026;39.230;9.122;2023-03-29T10:13:54;102282.53;;;20.79
67599;BMP280;62026;39.230;9.122;2023-03-29T10:16:36;102292.66;;;19.69
67599;BMP280;62026;39.230;9.122;2023-03-29T10:19:33;102292.25;;;20.52
67599;BMP280;62026;39.230;9.122;2023-03-29T10:22:10;102286.22;;;20.33
67599;BMP280;62026;39.230;9.122;2023-03-29T10:24:39;102280.97;;;19.98
67599;BMP280;62026;39.230;9.122;2023-03-29T10:27:10;102269.69;;;20.25
67599;BMP280;62026;39.230;9.122;2023-03-29T10:29:41;102272.56;;;19.48
67599;BMP280;62026;39.230;9.122;2023-03-29T10:32:22;102275.69;;;20.15
67599;BMP280;62026;39.230;9.122;2023-03-29T10:34:51;102277.97;;;20.35
67599;BMP280;62026;39.230;9.122;2023-03-29T10:37:19;102267.31;;;20.40
67599;BMP280;62026;39.230;9.122;2023-03-29T10:39:47;102283.53;;;19.93
67599;BMP280;62026;39.230;9.122;2023-03-29T10:42:17;102274.81;;;19.86
67599;BMP280;62026;39.230;9.122;2023-03-29T10:44:56;102265.00;;;20.32
67599;BMP280;62026;39.230;9.122;2023-03-29T10:47:23;102262.16;;;20.50
67599;BMP280;62026;39.230;9.122;2023-03-29T10:49:57;102253.66;;;20.41
67599;BMP280;62026;39.230;9.122;2023-03-29T10:52:28;102243.75;;;20.42
67599;BMP280;62026;39.230;9.122;2023-03-29T10:54:56;102260.38;;;19.29
67599;BMP280;62026;39.230;9.122;2023-03-29T11:09:00;102252.75;;;18.73
67599;BMP280;62026;39.230;9.122;2023-03-29T11:17:34;102246.31;;;18.44
67599;BMP280;62026;39.230;9.122;2023-03-29T11:23:13;102240.50;;;18.17
67599;BMP280;62026;39.230;9.122;2023-03-29T11:26:20;102237.19;;;18.51
67599;BMP280;62026;39.230;9.122;2023-03-29T11:29:02;102245.38;;;18.56
67599;BMP280;62026;39.230;9.122;2023-03-29T11:32:14;102235.66;;;18.74
67599;BMP280;62026;39.230;9.122;2023-03-29T11:43:37;102227.81;;;17.94
67599;BMP280;62026;39.230;9.122;2023-03-29T11:46:15;102219.78;;;17.94
67599;BMP280;62026;39.230;9.122;2023-03-29T11:48:52;102211.19;;;17.92
67599;BMP280;62026;39.230;9.122;2023-03-29T11:51:26;102213.63;;;17.94
67599;BMP280;62026;39.230;9.122;2023-03-29T11:56:56;102216.22;;;18.00
67599;BMP280;62026;39.230;9.122;2023-03-29T11:59:46;102215.69;;;18.10
67599;BMP280;62026;39.230;9.122;2023-03-29T12:04:50;102212.66;;;17.70
67599;BMP280;62026;39.230;9.122;2023-03-29T12:07:27;102214.16;;;17.59
67599;BMP280;62026;39.230;9.122;2023-03-29T12:10:12;102214.72;;;17.68
67599;BMP280;62026;39.230;9.122;2023-03-29T12:12:59;102201.84;;;17.58
67599;BMP280;62026;39.230;9.122;2023-03-29T12:15:32;102189.53;;;17.57
67599;BMP280;62026;39.230;9.122;2023-03-29T12:20:59;102174.84;;;17.48
67599;BMP280;62026;39.230;9.122;2023-03-29T12:23:30;102180.41;;;17.46
67599;BMP280;62026;39.230;9.122;2023-03-29T12:29:19;102182.97;;;17.35
67599;BMP280;62026;39.230;9.122;2023-03-29T12:38:28;102153.25;;;17.06
67599;BMP280;62026;39.230;9.122;2023-03-29T12:41:24;102147.47;;;17.09
67599;BMP280;62026;39.230;9.122;2023-03-29T12:44:26;102136.63;;;16.79
67599;BMP280;62026;39.230;9.122;2023-03-29T12:46:58;102146.50;;;16.97
67599;BMP280;62026;39.230;9.122;2023-03-29T12:49:33;102154.19;;;16.87
67599;BMP280;62026;39.230;9.122;2023-03-29T12:52:13;102132.84;;;16.87
67599;BMP280;62026;39.230;9.122;2023-03-29T12:54:56;102140.16;;;16.98
67599;BMP280;62026;39.230;9.122;2023-03-29T12:57:43;102130.19;;;16.87
67599;BMP280;62026;39.230;9.122;2023-03-29T13:00:42;102120.78;;;17.09
67599;BMP280;62026;39.230;9.122;2023-03-29T13:06:11;102144.13;;;16.58
67599;BMP280;62026;39.230;9.122;2023-03-29T13:08:41;102150.69;;;16.62
67599;BMP280;62026;39.230;9.122;2023-03-29T13:14:24;102138.72;;;16.71
67599;BMP280;62026;39.230;9.122;2023-03-29T13:16:52;102138.00;;;16.82
67599;BMP280;62026;39.230;9.122;2023-03-29T13:25:01;102124.00;;;16.62
67599;BMP280;62026;39.230;9.122;2023-03-29T13:28:05;102130.44;;;16.86
67599;BMP280;62026;39.230;9.122;2023-03-29T13:31:03;102124.75;;;16.75
67599;BMP280;62026;39.230;9.122;2023-03-29T13:34:06;102130.28;;;16.74
67599;BMP280;62026;39.230;9.122;2023-03-29T13:37:07;102119.47;;;16.69
67599;BMP280;62026;39.230;9.122;2023-03-29T13:39:52;102118.16;;;16.78
67599;BMP280;62026;39.230;9.122;2023-03-29T13:45:31;102099.28;;;16.79
67599;BMP280;62026;39.230;9.122;2023-03-29T13:51:18;102101.47;;;16.58
67599;BMP280;62026;39.230;9.122;2023-03-29T13:53:58;102094.81;;;16.73
67599;BMP280;62026;39.230;9.122;2023-03-29T13:56:47;102099.31;;;16.73
67599;BMP280;62026;39.230;9.122;2023-03-29T13:59:26;102092.06;;;16.55
67599;BMP280;62026;39.230;9.122;2023-03-29T14:01:59;102097.00;;;16.52
67599;BMP280;62026;39.230;9.122;2023-03-29T14:04:42;102088.84;;;16.46
67599;BMP280;62026;39.230;9.122;2023-03-29T14:07:13;102084.31;;;16.54
67599;BMP280;62026;39.230;9.122;2023-03-29T14:09:44;102076.16;;;16.67
67599;BMP280;62026;39.230;9.122;2023-03-29T14:12:13;102077.13;;;16.54
67599;BMP280;62026;39.230;9.122;2023-03-29T14:14:44;102081.63;;;16.54
67599;BMP280;62026;39.230;9.122;2023-03-29T14:17:20;102076.97;;;16.42
67599;BMP280;62026;39.230;9.122;2023-03-29T14:19:47;102071.22;;;16.45
67599;BMP280;62026;39.230;9.122;2023-03-29T14:22:18;102067.78;;;16.38
67599;BMP280;62026;39.230;9.122;2023-03-29T14:24:50;102067.63;;;16.58
67599;BMP280;62026;39.230;9.122;2023-03-29T14:27:18;102073.63;;;16.54
67599;BMP280;62026;39.230;9.122;2023-03-29T14:29:46;102062.00;;;16.41
67599;BMP280;62026;39.230;9.122;2023-03-29T14:32:27;102059.38;;;16.35
67599;BMP280;62026;39.230;9.122;2023-03-29T14:34:54;102077.19;;;16.34
67599;BMP280;62026;39.230;9.122;2023-03-29T14:37:26;102073.97;;;16.32
67599;BMP280;62026;39.230;9.122;2023-03-29T14:39:54;102063.34;;;16.26
67599;BMP280;62026;39.230;9.122;2023-03-29T14:42:26;102089.78;;;16.27
67599;BMP280;62026;39.230;9.122;2023-03-29T14:45:06;102075.34;;;16.35
67599;BMP280;62026;39.230;9.122;2023-03-29T14:47:34;102071.34;;;16.19
67599;BMP280;62026;39.230;9.122;2023-03-29T14:50:02;102059.84;;;16.25
67599;BMP280;62026;39.230;9.122;2023-03-29T14:52:30;102077.84;;;16.30
67599;BMP280;62026;39.230;9.122;2023-03-29T14:54:59;102064.75;;;16.28
67599;BMP280;62026;39.230;9.122;2023-03-29T14:57:34;102062.94;;;16.22
67599;BMP280;62026;39.230;9.122;2023-03-29T15:00:36;102060.47;;;16.21
67599;BMP280;62026;39.230;9.122;2023-03-29T15:03:12;102063.47;;;16.37
67599;BMP280;62026;39.230;9.122;2023-03-29T15:05:56;102072.31;;;16.38
67599;BMP280;62026;39.230;9.122;2023-03-29T15:08:33;102070.09;;;16.28
67599;BMP280;62026;39.230;9.122;2023-03-29T15:11:01;102064.75;;;16.28
67599;BMP280;62026;39.230;9.122;2023-03-29T15:13:29;102066.34;;;16.29
67599;BMP280;62026;39.230;9.122;2023-03-29T15:15:59;102060.28;;;16.22
67599;BMP280;62026;39.230;9.122;2023-03-29T15:18:36;102063.81;;;16.16
67599;BMP280;62026;39.230;9.122;2023-03-29T15:21:07;102072.13;;;16.33
67599;BMP280;62026;39.230;9.122;2023-03-29T15:23:41;102068.78;;;16.37
67599;BMP280;62026;39.230;9.122;2023-03-29T15:26:21;102066.81;;;16.26
67599;BMP280;62026;39.230;9.122;2023-03-29T15:28:59;102064.75;;;16.28
67599;BMP280;62026;39.230;9.122;2023-03-29T15:31:39;102061.84;;;16.30
67599;BMP280;62026;39.230;9.122;2023-03-29T15:34:24;102063.31;;;16.32
67599;BMP280;62026;39.230;9.122;2023-03-29T15:36:51;102053.41;;;16.39
67599;BMP280;62026;39.230;9.122;2023-03-29T15:39:17;102063.53;;;16.24
67599;BMP280;62026;39.230;9.122;2023-03-29T15:41:49;102059.00;;;16.31
67599;BMP280;62026;39.230;9.122;2023-03-29T15:44:21;102057.19;;;16.25
67599;BMP280;62026;39.230;9.122;2023-03-29T15:46:47;102056.38;;;16.18
67599;BMP280;62026;39.230;9.122;2023-03-29T15:49:13;102055.81;;;16.16
67599;BMP280;62026;39.230;9.122;2023-03-29T15:51:40;102056.22;;;16.13
67599;BMP280;62026;39.230;9.122;2023-03-29T15:54:06;102054.53;;;16.19
67599;BMP280;62026;39.230;9.122;2023-03-29T15:56:40;102045.94;;;16.23
67599;BMP280;62026;39.230;9.122;2023-03-29T15:59:11;102054.19;;;16.15
67599;BMP280;62026;39.230;9.122;2023-03-29T16:01:37;102039.84;;;16.16
67599;BMP280;62026;39.230;9.122;2023-03-29T16:04:06;102039.38;;;16.19
67599;BMP280;62026;39.230;9.122;2023-03-29T16:06:33;102044.63;;;16.01
67599;BMP280;62026;39.230;9.122;2023-03-29T16:08:59;102038.25;;;16.02
67599;BMP280;62026;39.230;9.122;2023-03-29T16:11:25;102036.88;;;15.93
67599;BMP280;62026;39.230;9.122;2023-03-29T16:13:54;102045.66;;;16.00
67599;BMP280;62026;39.230;9.122;2023-03-29T16:16:20;102034.38;;;15.98
67599;BMP280;62026;39.230;9.122;2023-03-29T16:18:47;102036.25;;;15.91
67599;BMP280;62026;39.230;9.122;2023-03-29T16:21:16;102032.72;;;15.97
67599;BMP280;62026;39.230;9.122;2023-03-29T16:23:44;102024.75;;;15.97
67599;BMP280;62026;39.230;9.122;2023-03-29T16:26:13;102030.84;;;16.04
67599;BMP280;62026;39.230;9.122;2023-03-29T16:28:39;102028.19;;;16.04
67599;BMP280;62026;39.230;9.122;2023-03-29T16:31:08;102033.91;;;16.07
67599;BMP280;62026;39.230;9.122;2023-03-29T16:33:35;102038.31;;;15.89